createdAt,value
2017-08-31T00:00:27.552Z,22.4
2017-08-31T00:01:29.165Z,19.1
2017-08-31T00:02:30.782Z,13.4
2017-08-31T00:03:32.395Z,15.4
2017-08-31T00:04:34.009Z,19.5
2017-08-31T00:05:35.618Z,15.2
2017-08-31T00:06:37.231Z,10.8
2017-08-31T00:07:38.849Z,12.4
2017-08-31T00:08:40.463Z,15.5
2017-08-31T00:09:42.077Z,16.7
2017-08-31T00:10:43.686Z,12.4
2017-08-31T00:11:45.302Z,14.6
2017-08-31T00:12:46.919Z,13.9
2017-08-31T00:13:48.529Z,13.1
2017-08-31T00:14:50.142Z,16.2
2017-08-31T00:15:51.762Z,16.1
2017-08-31T00:16:53.378Z,16.0
2017-08-31T00:17:54.988Z,14.3
2017-08-31T00:18:56.596Z,15.1
2017-08-31T00:19:58.214Z,17.6
2017-08-31T00:20:59.830Z,18.3
2017-08-31T00:22:01.444Z,18.8
2017-08-31T00:23:03.052Z,17.3
2017-08-31T00:24:04.671Z,18.6
2017-08-31T00:25:06.286Z,12.2
2017-08-31T00:26:07.892Z,17.0
2017-08-31T00:27:09.505Z,16.3
2017-08-31T00:28:11.123Z,15.0
2017-08-31T00:29:12.736Z,23.8
2017-08-31T00:30:14.348Z,16.4
2017-08-31T00:31:15.963Z,15.9
2017-08-31T00:32:17.581Z,16.4
2017-08-31T00:33:19.193Z,24.9
2017-08-31T00:34:20.804Z,14.3
2017-08-31T00:35:22.414Z,15.5
2017-08-31T00:36:24.034Z,14.3
2017-08-31T00:37:25.643Z,14.7
2017-08-31T00:38:27.256Z,18.2
2017-08-31T00:39:28.875Z,12.7
2017-08-31T00:40:30.488Z,15.7
2017-08-31T00:41:32.099Z,13.8
2017-08-31T00:42:33.710Z,21.1
2017-08-31T00:43:35.328Z,14.1
2017-08-31T00:44:36.943Z,15.5
2017-08-31T00:45:38.555Z,14.1
2017-08-31T00:46:40.166Z,14.5
2017-08-31T00:47:41.782Z,21.6
2017-08-31T00:48:43.397Z,23.9
2017-08-31T00:49:45.007Z,16.5
2017-08-31T00:50:46.620Z,13.4
2017-08-31T00:51:48.238Z,17.9
2017-08-31T00:52:49.855Z,14.6
2017-08-31T00:53:51.462Z,16.2
2017-08-31T00:54:53.075Z,19.0
2017-08-31T00:55:54.692Z,14.4
2017-08-31T00:56:56.308Z,13.6
2017-08-31T00:57:57.944Z,12.5
2017-08-31T00:58:59.562Z,16.5
2017-08-31T01:00:01.179Z,17.9
2017-08-31T01:01:02.794Z,13.9
2017-08-31T01:02:04.403Z,20.2
2017-08-31T01:03:06.016Z,23.3
2017-08-31T01:04:07.634Z,19.5
2017-08-31T01:05:09.256Z,24.0
2017-08-31T01:06:10.866Z,22.4
2017-08-31T01:07:12.488Z,17.7
2017-08-31T01:08:14.101Z,24.9
2017-08-31T01:09:15.718Z,24.2
2017-08-31T01:10:17.323Z,24.9
2017-08-31T01:11:18.942Z,15.8
2017-08-31T01:12:20.556Z,22.6
2017-08-31T01:13:22.168Z,23.4
2017-08-31T01:14:23.780Z,22.5
2017-08-31T01:15:25.400Z,24.3
2017-08-31T01:16:27.015Z,28.9
2017-08-31T01:17:28.624Z,24.2
2017-08-31T01:18:30.238Z,25.5
2017-08-31T01:19:31.855Z,21.8
2017-08-31T01:20:33.476Z,34.2
2017-08-31T01:21:35.085Z,25.1
2017-08-31T01:22:36.700Z,21.1
2017-08-31T01:23:38.316Z,24.8
2017-08-31T01:24:39.935Z,27.6
2017-08-31T01:25:41.544Z,22.0
2017-08-31T01:26:43.161Z,23.0
2017-08-31T01:27:44.780Z,20.4
2017-08-31T01:28:46.400Z,35.2
2017-08-31T01:29:48.009Z,30.8
2017-08-31T01:30:49.624Z,24.9
2017-08-31T01:31:51.239Z,21.8
2017-08-31T01:32:52.855Z,36.3
2017-08-31T01:33:54.468Z,27.6
2017-08-31T01:34:56.082Z,28.8
2017-08-31T01:35:57.702Z,25.7
2017-08-31T01:36:59.318Z,34.3
2017-08-31T01:38:00.930Z,23.5
2017-08-31T01:39:02.543Z,20.8
2017-08-31T01:40:04.160Z,14.2
2017-08-31T01:41:05.777Z,13.3
2017-08-31T01:42:07.391Z,16.1
2017-08-31T01:43:09.008Z,14.9
2017-08-31T01:44:10.623Z,16.2
2017-08-31T01:45:12.232Z,20.3
2017-08-31T01:46:13.844Z,15.4
2017-08-31T01:47:15.462Z,22.6
2017-08-31T01:48:17.077Z,15.5
2017-08-31T01:49:18.688Z,16.0
2017-08-31T01:50:20.322Z,20.0
2017-08-31T01:51:21.911Z,13.0
2017-08-31T01:52:23.531Z,16.0
2017-08-31T01:53:25.145Z,18.9
2017-08-31T01:54:26.753Z,19.3
2017-08-31T01:55:28.364Z,17.2
2017-08-31T01:56:29.984Z,21.1
2017-08-31T01:57:31.600Z,20.5
2017-08-31T01:58:33.209Z,20.1
2017-08-31T01:59:34.825Z,21.8
2017-08-31T02:00:36.477Z,19.3
2017-08-31T02:01:38.048Z,20.2
2017-08-31T02:02:39.663Z,18.8
2017-08-31T02:03:41.275Z,17.7
2017-08-31T02:04:42.897Z,13.9
2017-08-31T02:05:44.510Z,17.3
2017-08-31T02:06:46.120Z,18.0
2017-08-31T02:07:47.736Z,16.5
2017-08-31T02:08:49.348Z,21.5
2017-08-31T02:09:50.963Z,18.2
2017-08-31T02:10:52.586Z,19.3
2017-08-31T02:11:54.201Z,20.9
2017-08-31T02:12:55.809Z,21.4
2017-08-31T02:13:57.422Z,22.6
2017-08-31T02:14:59.042Z,29.8
2017-08-31T02:16:00.656Z,28.4
2017-08-31T02:17:02.275Z,19.7
2017-08-31T02:18:03.892Z,16.3
2017-08-31T02:19:05.508Z,24.6
2017-08-31T02:20:07.122Z,29.0
2017-08-31T02:21:08.739Z,28.2
2017-08-31T02:22:10.350Z,26.0
2017-08-31T02:23:11.972Z,22.3
2017-08-31T02:24:13.587Z,23.1
2017-08-31T02:25:15.200Z,21.9
2017-08-31T02:26:16.813Z,20.0
2017-08-31T02:27:18.431Z,17.8
2017-08-31T02:28:20.046Z,18.2
2017-08-31T02:29:21.656Z,19.4
2017-08-31T02:30:23.269Z,20.9
2017-08-31T02:31:24.887Z,21.5
2017-08-31T02:32:26.501Z,18.5
2017-08-31T02:33:28.114Z,17.5
2017-08-31T02:34:29.729Z,17.8
2017-08-31T02:35:31.347Z,18.9
2017-08-31T02:36:32.965Z,19.5
2017-08-31T02:37:34.575Z,17.4
2017-08-31T02:38:36.197Z,17.0
2017-08-31T02:39:37.808Z,15.5
2017-08-31T02:40:39.425Z,17.0
2017-08-31T02:41:41.034Z,24.3
2017-08-31T02:42:42.669Z,21.0
2017-08-31T02:43:44.289Z,22.8
2017-08-31T02:44:45.903Z,26.4
2017-08-31T02:45:47.514Z,25.7
2017-08-31T02:46:49.130Z,31.5
2017-08-31T02:47:50.746Z,29.9
2017-08-31T02:48:52.403Z,27.5
2017-08-31T02:49:53.986Z,33.9
2017-08-31T02:50:55.591Z,24.2
2017-08-31T02:51:57.202Z,21.5
2017-08-31T02:52:58.819Z,32.9
2017-08-31T02:54:00.437Z,27.2
2017-08-31T02:55:02.055Z,28.3
2017-08-31T02:56:03.664Z,30.8
2017-08-31T02:57:05.277Z,26.2
2017-08-31T02:58:06.893Z,24.8
2017-08-31T02:59:08.508Z,33.6
2017-08-31T03:00:10.121Z,24.7
2017-08-31T03:01:11.736Z,28.7
2017-08-31T03:02:13.353Z,30.7
2017-08-31T03:03:14.969Z,32.4
2017-08-31T03:04:16.603Z,22.8
2017-08-31T03:05:18.216Z,19.1
2017-08-31T03:06:19.826Z,19.0
2017-08-31T03:07:21.448Z,19.7
2017-08-31T03:08:23.065Z,13.7
2017-08-31T03:09:24.682Z,21.0
2017-08-31T03:10:26.293Z,12.2
2017-08-31T03:11:27.904Z,20.4
2017-08-31T03:12:29.520Z,20.8
2017-08-31T03:13:31.130Z,13.6
2017-08-31T03:14:32.748Z,21.3
2017-08-31T03:15:34.365Z,13.5
2017-08-31T03:16:35.980Z,14.5
2017-08-31T03:17:37.593Z,16.1
2017-08-31T03:18:39.204Z,19.6
2017-08-31T03:19:40.823Z,16.8
2017-08-31T03:20:42.438Z,15.7
2017-08-31T03:21:44.056Z,19.3
2017-08-31T03:22:45.667Z,21.0
2017-08-31T03:23:47.280Z,30.0
2017-08-31T03:24:48.899Z,22.8
2017-08-31T03:25:50.515Z,19.6
2017-08-31T03:26:52.128Z,31.3
2017-08-31T03:27:53.743Z,33.8
2017-08-31T03:28:55.362Z,26.9
2017-08-31T03:29:56.976Z,25.9
2017-08-31T03:30:58.589Z,25.7
2017-08-31T03:32:00.198Z,25.5
2017-08-31T03:33:01.819Z,29.2
2017-08-31T03:34:03.435Z,37.7
2017-08-31T03:35:05.046Z,24.6
2017-08-31T03:36:06.660Z,34.1
2017-08-31T03:37:08.281Z,34.9
2017-08-31T03:38:09.900Z,31.9
2017-08-31T03:39:11.509Z,28.7
2017-08-31T03:40:13.122Z,29.9
2017-08-31T03:41:14.740Z,36.2
2017-08-31T03:42:16.360Z,36.9
2017-08-31T03:43:17.973Z,36.0
2017-08-31T03:44:19.586Z,36.6
2017-08-31T03:45:21.202Z,27.6
2017-08-31T03:46:22.815Z,56.0
2017-08-31T03:47:24.430Z,35.6
2017-08-31T03:48:26.049Z,38.6
2017-08-31T03:49:27.659Z,44.0
2017-08-31T03:50:29.273Z,46.9
2017-08-31T03:51:30.888Z,43.1
2017-08-31T03:52:32.510Z,37.6
2017-08-31T03:53:34.129Z,49.0
2017-08-31T03:54:35.738Z,39.6
2017-08-31T03:55:37.350Z,32.3
2017-08-31T03:56:38.968Z,43.3
2017-08-31T03:57:40.584Z,47.1
2017-08-31T03:58:42.203Z,40.7
2017-08-31T03:59:43.823Z,32.8
2017-08-31T04:00:45.429Z,35.3
2017-08-31T04:01:47.047Z,32.3
2017-08-31T04:02:48.661Z,23.8
2017-08-31T04:03:50.272Z,35.4
2017-08-31T04:04:51.886Z,30.4
2017-08-31T04:05:53.505Z,25.5
2017-08-31T04:06:55.124Z,28.6
2017-08-31T04:07:56.741Z,21.3
2017-08-31T04:08:58.350Z,23.1
2017-08-31T04:09:59.969Z,18.0
2017-08-31T04:11:01.585Z,22.5
2017-08-31T04:12:03.198Z,19.3
2017-08-31T04:13:04.836Z,16.7
2017-08-31T04:14:06.459Z,15.4
2017-08-31T04:15:08.076Z,13.0
2017-08-31T04:16:09.684Z,13.9
2017-08-31T04:17:11.295Z,16.5
2017-08-31T04:18:12.914Z,19.7
2017-08-31T04:19:14.525Z,17.4
2017-08-31T04:20:16.142Z,16.7
2017-08-31T04:21:17.760Z,22.8
2017-08-31T04:22:19.369Z,26.1
2017-08-31T04:23:20.982Z,22.1
2017-08-31T04:24:22.594Z,22.5
2017-08-31T04:25:24.214Z,20.0
2017-08-31T04:26:25.832Z,25.8
2017-08-31T04:27:27.446Z,28.3
2017-08-31T04:28:29.057Z,24.7
2017-08-31T04:29:30.672Z,28.3
2017-08-31T04:30:32.291Z,24.3
2017-08-31T04:31:33.900Z,22.6
2017-08-31T04:32:35.510Z,23.1
2017-08-31T04:33:37.124Z,20.5
2017-08-31T04:34:38.745Z,30.0
2017-08-31T04:35:40.360Z,24.4
2017-08-31T04:36:41.976Z,27.4
2017-08-31T04:37:43.590Z,30.2
2017-08-31T04:38:45.200Z,18.2
2017-08-31T04:39:46.817Z,25.4
2017-08-31T04:40:48.429Z,29.0
2017-08-31T04:41:50.044Z,26.2
2017-08-31T04:42:51.665Z,25.9
2017-08-31T04:43:53.276Z,23.8
2017-08-31T04:44:54.915Z,27.8
2017-08-31T04:45:56.509Z,27.4
2017-08-31T04:46:58.119Z,24.1
2017-08-31T04:47:59.733Z,25.2
2017-08-31T04:49:01.354Z,19.9
2017-08-31T04:50:02.986Z,20.0
2017-08-31T04:51:04.607Z,30.6
2017-08-31T04:52:06.220Z,34.6
2017-08-31T04:53:07.843Z,21.4
2017-08-31T04:54:09.456Z,32.6
2017-08-31T04:55:11.068Z,32.1
2017-08-31T04:56:12.691Z,20.0
2017-08-31T04:57:14.302Z,19.1
2017-08-31T04:58:15.915Z,24.7
2017-08-31T04:59:17.535Z,38.7
2017-08-31T05:00:19.154Z,23.4
2017-08-31T05:01:20.766Z,22.3
2017-08-31T05:02:22.380Z,17.7
2017-08-31T05:03:24.000Z,26.9
2017-08-31T05:04:25.619Z,19.5
2017-08-31T05:05:27.231Z,21.8
2017-08-31T05:06:28.843Z,16.3
2017-08-31T05:07:30.464Z,13.9
2017-08-31T05:08:32.079Z,14.6
2017-08-31T05:09:33.698Z,15.1
2017-08-31T05:10:35.311Z,21.2
2017-08-31T05:11:36.933Z,18.0
2017-08-31T05:12:38.552Z,19.7
2017-08-31T05:13:40.161Z,25.4
2017-08-31T05:14:41.776Z,16.9
2017-08-31T05:15:43.392Z,20.7
2017-08-31T05:16:45.005Z,11.7
2017-08-31T05:17:46.628Z,15.1
2017-08-31T05:18:48.250Z,21.4
2017-08-31T05:19:49.864Z,12.9
2017-08-31T05:20:51.478Z,14.9
2017-08-31T05:21:53.097Z,16.1
2017-08-31T05:22:54.714Z,14.2
2017-08-31T05:23:56.334Z,19.4
2017-08-31T05:24:57.953Z,9.7
2017-08-31T05:25:59.572Z,10.5
2017-08-31T05:27:01.183Z,12.4
2017-08-31T05:28:02.795Z,16.0
2017-08-31T05:29:04.416Z,11.7
2017-08-31T05:30:06.035Z,15.1
2017-08-31T05:31:07.646Z,18.9
2017-08-31T05:32:09.267Z,14.7
2017-08-31T05:33:10.883Z,14.0
2017-08-31T05:34:12.511Z,16.6
2017-08-31T05:35:14.123Z,101.6
2017-08-31T05:36:15.741Z,234.8
2017-08-31T05:37:17.358Z,33.4
2017-08-31T05:38:18.978Z,16.0
2017-08-31T05:39:20.600Z,17.0
2017-08-31T05:40:22.381Z,15.1
2017-08-31T05:41:23.998Z,13.0
2017-08-31T05:42:25.618Z,16.9
2017-08-31T05:43:27.226Z,9.6
2017-08-31T05:44:28.844Z,9.5
2017-08-31T05:45:30.460Z,10.1
2017-08-31T05:46:32.312Z,7.0
2017-08-31T05:47:33.929Z,13.1
2017-08-31T05:48:35.543Z,8.1
2017-08-31T05:49:37.160Z,13.6
2017-08-31T05:50:38.782Z,7.4
2017-08-31T05:51:40.400Z,8.8
2017-08-31T05:52:42.019Z,10.7
2017-08-31T05:53:43.634Z,6.0
2017-08-31T05:54:45.262Z,8.4
2017-08-31T05:55:46.878Z,14.5
2017-08-31T05:56:48.493Z,12.6
2017-08-31T05:57:50.111Z,10.3
2017-08-31T05:58:51.731Z,8.8
2017-08-31T05:59:53.351Z,7.8
2017-08-31T06:00:54.968Z,40.4
2017-08-31T06:01:56.602Z,23.3
2017-08-31T06:02:58.222Z,30.6
2017-08-31T06:03:59.836Z,16.2
2017-08-31T06:05:01.459Z,12.4
2017-08-31T06:06:03.078Z,14.4
2017-08-31T06:07:04.690Z,9.9
2017-08-31T06:08:06.305Z,9.5
2017-08-31T06:09:07.926Z,9.6
2017-08-31T06:10:09.545Z,8.2
2017-08-31T06:11:11.156Z,10.9
2017-08-31T06:12:12.770Z,11.8
2017-08-31T06:13:14.394Z,11.2
2017-08-31T06:14:16.006Z,11.5
2017-08-31T06:15:17.624Z,10.3
2017-08-31T06:16:19.246Z,55.9
2017-08-31T06:17:20.861Z,31.2
2017-08-31T06:18:22.483Z,43.8
2017-08-31T06:19:24.096Z,23.1
2017-08-31T06:20:25.711Z,8.2
2017-08-31T06:21:27.334Z,10.2
2017-08-31T06:22:28.961Z,11.1
2017-08-31T06:23:30.571Z,10.9
2017-08-31T06:24:32.184Z,9.2
2017-08-31T06:25:33.804Z,7.5
2017-08-31T06:26:35.420Z,9.6
2017-08-31T06:27:37.189Z,11.6
2017-08-31T06:28:38.805Z,8.9
2017-08-31T06:29:40.427Z,11.3
2017-08-31T06:30:42.050Z,13.7
2017-08-31T06:31:43.670Z,8.9
2017-08-31T06:32:45.283Z,9.0
2017-08-31T06:33:46.899Z,7.2
2017-08-31T06:34:48.517Z,7.5
2017-08-31T06:35:50.140Z,10.3
2017-08-31T06:36:51.760Z,9.5
2017-08-31T06:37:53.376Z,6.6
2017-08-31T06:38:54.989Z,7.4
2017-08-31T06:39:56.611Z,6.2
2017-08-31T06:40:58.230Z,8.1
2017-08-31T06:41:59.844Z,5.8
2017-08-31T06:43:01.458Z,5.8
2017-08-31T06:44:03.079Z,7.6
2017-08-31T06:45:04.705Z,7.0
2017-08-31T06:46:06.316Z,10.0
2017-08-31T06:47:07.940Z,5.7
2017-08-31T06:48:09.552Z,5.0
2017-08-31T06:49:11.171Z,10.7
2017-08-31T06:50:12.792Z,6.0
2017-08-31T06:51:14.408Z,4.2
2017-08-31T06:52:16.066Z,5.6
2017-08-31T06:53:17.652Z,4.3
2017-08-31T06:54:19.265Z,3.8
2017-08-31T06:55:20.887Z,3.4
2017-08-31T06:56:22.501Z,3.0
2017-08-31T06:57:24.117Z,3.0
2017-08-31T06:58:25.743Z,2.8
2017-08-31T06:59:27.365Z,3.5
2017-08-31T07:00:29.014Z,3.8
2017-08-31T07:01:30.594Z,4.0
2017-08-31T07:02:32.208Z,5.5
2017-08-31T07:03:33.830Z,11.2
2017-08-31T07:04:35.446Z,2.1
2017-08-31T07:05:37.064Z,2.0
2017-08-31T07:06:38.687Z,2.1
2017-08-31T07:07:40.302Z,2.3
2017-08-31T07:08:41.923Z,3.1
2017-08-31T07:09:43.543Z,3.4
2017-08-31T07:10:45.161Z,2.2
2017-08-31T07:11:46.775Z,2.8
2017-08-31T07:12:48.392Z,2.8
2017-08-31T07:13:50.018Z,2.1
2017-08-31T07:14:51.636Z,2.5
2017-08-31T07:15:53.250Z,4.0
2017-08-31T07:16:54.867Z,3.8
2017-08-31T07:17:56.489Z,1.7
2017-08-31T07:18:58.108Z,4.0
2017-08-31T07:19:59.733Z,2.3
2017-08-31T07:21:01.357Z,2.0
2017-08-31T07:22:02.978Z,9.0
2017-08-31T07:23:04.598Z,2.5
2017-08-31T07:24:06.213Z,2.3
2017-08-31T07:25:07.829Z,3.1
2017-08-31T07:26:09.453Z,1.7
2017-08-31T07:27:11.074Z,2.7
2017-08-31T07:28:12.696Z,1.9
2017-08-31T07:29:14.315Z,8.8
2017-08-31T07:30:15.930Z,2.4
2017-08-31T07:31:17.545Z,3.0
2017-08-31T07:32:19.167Z,2.6
2017-08-31T07:33:20.788Z,3.3
2017-08-31T07:34:22.404Z,1.8
2017-08-31T07:35:24.021Z,2.0
2017-08-31T07:36:25.639Z,2.8
2017-08-31T07:37:27.255Z,2.4
2017-08-31T07:38:28.879Z,3.8
2017-08-31T07:39:30.498Z,4.6
2017-08-31T07:40:32.114Z,1.8
2017-08-31T07:41:33.733Z,2.8
2017-08-31T07:42:36.147Z,1.8
2017-08-31T07:43:37.768Z,4.6
2017-08-31T07:44:39.394Z,3.5
2017-08-31T07:45:41.008Z,2.1
2017-08-31T07:46:42.618Z,1.4
2017-08-31T07:47:44.242Z,4.0
2017-08-31T07:48:45.865Z,1.7
2017-08-31T07:49:47.486Z,2.0
2017-08-31T07:50:49.100Z,1.8
2017-08-31T07:51:50.721Z,3.7
2017-08-31T07:52:52.338Z,2.5
2017-08-31T07:53:53.959Z,2.3
2017-08-31T07:54:55.580Z,2.0
2017-08-31T07:55:57.197Z,3.2
2017-08-31T07:56:58.821Z,2.1
2017-08-31T07:58:00.435Z,2.0
2017-08-31T07:59:02.052Z,3.2
2017-08-31T08:00:03.674Z,4.2
2017-08-31T08:01:05.298Z,2.2
2017-08-31T08:02:06.914Z,2.5
2017-08-31T08:03:08.531Z,2.0
2017-08-31T08:04:10.155Z,3.3
2017-08-31T08:05:11.775Z,2.5
2017-08-31T08:06:13.391Z,2.6
2017-08-31T08:07:15.006Z,2.8
2017-08-31T08:08:16.627Z,2.3
2017-08-31T08:09:18.245Z,2.4
2017-08-31T08:10:19.861Z,6.6
2017-08-31T08:11:21.482Z,3.3
2017-08-31T08:12:23.103Z,2.3
2017-08-31T08:13:24.718Z,2.9
2017-08-31T08:14:26.341Z,5.0
2017-08-31T08:15:27.959Z,3.9
2017-08-31T08:16:29.576Z,2.6
2017-08-31T08:17:31.193Z,3.7
2017-08-31T08:18:32.817Z,7.9
2017-08-31T08:19:34.430Z,2.8
2017-08-31T08:20:36.045Z,7.7
2017-08-31T08:21:37.669Z,6.3
2017-08-31T08:22:39.290Z,4.1
2017-08-31T08:23:40.910Z,3.8
2017-08-31T08:24:42.532Z,10.0
2017-08-31T08:25:44.157Z,7.7
2017-08-31T08:26:45.779Z,4.7
2017-08-31T08:27:47.392Z,4.2
2017-08-31T08:28:49.007Z,5.5
2017-08-31T08:29:50.626Z,6.0
2017-08-31T08:30:52.250Z,3.7
2017-08-31T08:31:53.869Z,4.7
2017-08-31T08:32:55.489Z,3.5
2017-08-31T08:33:57.102Z,3.4
2017-08-31T08:34:58.725Z,3.8
2017-08-31T08:36:00.340Z,4.7
2017-08-31T08:37:01.955Z,3.6
2017-08-31T08:38:03.579Z,3.3
2017-08-31T08:39:05.200Z,3.4
2017-08-31T08:40:06.822Z,4.1
2017-08-31T08:41:08.442Z,5.2
2017-08-31T08:42:10.053Z,4.1
2017-08-31T08:43:11.671Z,3.8
2017-08-31T08:44:13.295Z,6.7
2017-08-31T08:45:14.916Z,3.4
2017-08-31T08:46:16.538Z,4.4
2017-08-31T08:47:18.154Z,4.3
2017-08-31T08:48:19.773Z,4.6
2017-08-31T08:49:21.830Z,3.8
2017-08-31T08:50:23.454Z,3.5
2017-08-31T08:51:25.068Z,3.4
2017-08-31T08:52:26.686Z,4.0
2017-08-31T08:53:28.309Z,4.0
2017-08-31T08:54:29.933Z,3.4
2017-08-31T08:55:31.549Z,5.8
2017-08-31T08:56:33.163Z,3.7
2017-08-31T08:57:34.790Z,5.7
2017-08-31T08:58:36.406Z,5.6
2017-08-31T08:59:38.031Z,4.1
2017-08-31T09:00:39.648Z,2.3
2017-08-31T09:01:41.268Z,2.6
2017-08-31T09:02:42.885Z,6.0
2017-08-31T09:03:44.498Z,2.9
2017-08-31T09:04:46.115Z,3.4
2017-08-31T09:05:47.736Z,3.4
2017-08-31T09:06:49.358Z,3.6
2017-08-31T09:07:50.974Z,5.7
2017-08-31T09:08:52.591Z,2.4
2017-08-31T09:09:54.208Z,2.3
2017-08-31T09:10:55.836Z,4.1
2017-08-31T09:11:57.446Z,2.3
2017-08-31T09:12:59.064Z,1.6
2017-08-31T09:14:00.688Z,2.4
2017-08-31T09:15:02.307Z,2.1
2017-08-31T09:16:03.927Z,2.0
2017-08-31T09:17:05.541Z,2.1
2017-08-31T09:18:07.160Z,2.3
2017-08-31T09:19:08.776Z,2.5
2017-08-31T09:20:10.399Z,3.9
2017-08-31T09:21:12.018Z,2.1
2017-08-31T09:22:13.632Z,3.9
2017-08-31T09:23:15.250Z,2.9
2017-08-31T09:24:16.874Z,4.2
2017-08-31T09:25:18.514Z,7.5
2017-08-31T09:26:20.107Z,3.2
2017-08-31T09:27:21.725Z,4.8
2017-08-31T09:28:23.346Z,4.7
2017-08-31T09:29:24.968Z,4.3
2017-08-31T09:30:26.586Z,3.8
2017-08-31T09:31:28.206Z,3.6
2017-08-31T09:32:29.827Z,6.3
2017-08-31T09:33:31.446Z,3.1
2017-08-31T09:34:33.065Z,5.8
2017-08-31T09:35:34.679Z,3.4
2017-08-31T09:36:36.305Z,4.4
2017-08-31T09:37:37.928Z,3.2
2017-08-31T09:38:39.540Z,5.1
2017-08-31T09:39:41.155Z,4.3
2017-08-31T09:40:42.779Z,4.3
2017-08-31T09:41:44.400Z,8.8
2017-08-31T09:42:46.017Z,4.1
2017-08-31T09:43:47.634Z,4.0
2017-08-31T09:44:49.259Z,3.9
2017-08-31T09:45:50.878Z,4.0
2017-08-31T09:46:52.493Z,4.2
2017-08-31T09:47:54.113Z,4.6
2017-08-31T09:48:55.728Z,4.5
2017-08-31T09:49:57.350Z,7.5
2017-08-31T09:50:58.976Z,5.0
2017-08-31T09:52:00.599Z,4.4
2017-08-31T09:53:02.213Z,3.9
2017-08-31T09:54:03.830Z,4.5
2017-08-31T09:55:05.454Z,10.0
2017-08-31T09:56:07.075Z,7.2
2017-08-31T09:57:08.704Z,7.7
2017-08-31T09:58:10.309Z,8.8
2017-08-31T09:59:11.936Z,4.5
2017-08-31T10:00:13.555Z,4.4
2017-08-31T10:01:15.170Z,5.8
2017-08-31T10:02:16.787Z,3.7
2017-08-31T10:03:18.408Z,3.9
2017-08-31T10:04:20.031Z,3.0
2017-08-31T10:05:21.645Z,4.4
2017-08-31T10:06:23.264Z,4.1
2017-08-31T10:07:24.888Z,3.7
2017-08-31T10:08:26.506Z,3.0
2017-08-31T10:09:28.121Z,3.2
2017-08-31T10:10:29.736Z,5.2
2017-08-31T10:11:31.361Z,4.1
2017-08-31T10:12:32.975Z,2.8
2017-08-31T10:13:34.599Z,2.4
2017-08-31T10:14:36.217Z,2.5
2017-08-31T10:15:37.831Z,5.1
2017-08-31T10:16:39.451Z,3.4
2017-08-31T10:17:41.074Z,2.3
2017-08-31T10:18:42.694Z,2.0
2017-08-31T10:19:44.310Z,2.3
2017-08-31T10:20:45.934Z,2.9
2017-08-31T10:21:47.548Z,3.6
2017-08-31T10:22:49.163Z,3.2
2017-08-31T10:23:50.787Z,2.5
2017-08-31T10:24:52.407Z,2.6
2017-08-31T10:25:54.024Z,3.2
2017-08-31T10:26:55.644Z,2.4
2017-08-31T10:27:57.270Z,2.6
2017-08-31T10:28:58.887Z,2.9
2017-08-31T10:30:00.503Z,2.7
2017-08-31T10:31:02.122Z,2.9
2017-08-31T10:32:03.743Z,2.7
2017-08-31T10:33:05.365Z,3.3
2017-08-31T10:34:06.983Z,3.5
2017-08-31T10:35:08.600Z,5.4
2017-08-31T10:36:10.223Z,3.5
2017-08-31T10:37:11.837Z,3.7
2017-08-31T10:38:13.454Z,4.1
2017-08-31T10:39:15.076Z,3.7
2017-08-31T10:40:16.691Z,3.5
2017-08-31T10:41:18.315Z,3.3
2017-08-31T10:42:19.933Z,3.9
2017-08-31T10:43:21.549Z,3.8
2017-08-31T10:44:23.172Z,3.6
2017-08-31T10:45:24.787Z,3.9
2017-08-31T10:46:26.410Z,2.6
2017-08-31T10:47:28.033Z,2.3
2017-08-31T10:48:29.650Z,2.8
2017-08-31T10:49:31.267Z,2.7
2017-08-31T10:50:32.888Z,4.9
2017-08-31T10:51:34.511Z,2.1
2017-08-31T10:52:36.123Z,2.2
2017-08-31T10:53:37.743Z,2.1
2017-08-31T10:54:39.357Z,2.8
2017-08-31T10:55:40.981Z,1.9
2017-08-31T10:56:42.604Z,1.7
2017-08-31T10:57:44.224Z,1.8
2017-08-31T10:58:45.839Z,1.9
2017-08-31T10:59:47.456Z,1.5
2017-08-31T11:00:49.078Z,1.7
2017-08-31T11:01:50.692Z,2.5
2017-08-31T11:02:52.319Z,1.8
2017-08-31T11:03:53.936Z,1.5
2017-08-31T11:04:55.558Z,3.1
2017-08-31T11:05:57.178Z,2.9
2017-08-31T11:06:58.794Z,1.7
2017-08-31T11:08:00.417Z,3.2
2017-08-31T11:09:02.035Z,2.2
2017-08-31T11:10:03.660Z,1.6
2017-08-31T11:11:05.276Z,2.0
2017-08-31T11:12:06.894Z,1.2
2017-08-31T11:13:08.516Z,1.9
2017-08-31T11:14:10.130Z,1.6
2017-08-31T11:15:11.757Z,1.9
2017-08-31T11:16:13.379Z,3.5
2017-08-31T11:17:14.999Z,2.4
2017-08-31T11:18:16.652Z,2.1
2017-08-31T11:19:18.243Z,3.0
2017-08-31T11:20:19.859Z,3.9
2017-08-31T11:21:21.486Z,5.7
2017-08-31T11:22:23.106Z,4.4
2017-08-31T11:23:24.727Z,2.8
2017-08-31T11:24:26.355Z,3.1
2017-08-31T11:25:27.983Z,2.9
2017-08-31T11:26:29.599Z,3.4
2017-08-31T11:27:31.365Z,3.0
2017-08-31T11:28:32.949Z,3.7
2017-08-31T11:29:34.579Z,1.7
2017-08-31T11:30:36.172Z,3.6
2017-08-31T11:31:37.771Z,2.1
2017-08-31T11:32:39.394Z,2.5
2017-08-31T11:33:41.102Z,2.2
2017-08-31T11:34:42.637Z,6.8
2017-08-31T11:35:44.317Z,2.3
2017-08-31T11:36:45.845Z,1.9
2017-08-31T11:37:47.427Z,2.7
2017-08-31T11:38:49.051Z,1.5
2017-08-31T11:39:50.675Z,4.1
2017-08-31T11:40:52.288Z,2.0
2017-08-31T11:41:53.905Z,1.6
2017-08-31T11:42:55.523Z,1.4
2017-08-31T11:43:57.140Z,2.0
2017-08-31T11:44:58.766Z,2.2
2017-08-31T11:46:00.387Z,1.5
2017-08-31T11:47:02.022Z,1.9
2017-08-31T11:48:03.635Z,2.0
2017-08-31T11:49:05.253Z,1.4
2017-08-31T11:50:06.875Z,1.7
2017-08-31T11:51:08.495Z,2.4
2017-08-31T11:52:10.110Z,1.6
2017-08-31T11:53:11.727Z,2.0
2017-08-31T11:54:13.353Z,5.0
2017-08-31T11:55:14.971Z,1.7
2017-08-31T11:56:16.593Z,2.3
2017-08-31T11:57:18.206Z,2.3
2017-08-31T11:58:19.822Z,3.0
2017-08-31T11:59:21.443Z,2.8
2017-08-31T12:00:23.067Z,2.4
2017-08-31T12:01:24.683Z,3.4
2017-08-31T12:02:26.297Z,1.9
2017-08-31T12:03:27.918Z,3.6
2017-08-31T12:04:29.534Z,6.0
2017-08-31T12:05:31.154Z,3.1
2017-08-31T12:06:32.771Z,2.0
2017-08-31T12:07:34.388Z,3.0
2017-08-31T12:08:36.012Z,2.8
2017-08-31T12:09:37.629Z,1.9
2017-08-31T12:10:39.243Z,2.8
2017-08-31T12:11:40.859Z,1.8
2017-08-31T12:12:42.484Z,2.2
2017-08-31T12:13:44.104Z,3.0
2017-08-31T12:14:45.721Z,5.7
2017-08-31T12:15:47.341Z,4.0
2017-08-31T12:16:48.967Z,2.2
2017-08-31T12:17:50.589Z,2.3
2017-08-31T12:18:52.205Z,2.0
2017-08-31T12:19:53.824Z,2.5
2017-08-31T12:20:55.448Z,4.1
2017-08-31T12:21:57.073Z,4.3
2017-08-31T12:22:58.695Z,2.8
2017-08-31T12:24:00.317Z,2.9
2017-08-31T12:25:01.933Z,2.9
2017-08-31T12:26:03.550Z,2.9
2017-08-31T12:27:05.178Z,3.4
2017-08-31T12:28:06.799Z,3.4
2017-08-31T12:29:08.414Z,2.7
2017-08-31T12:30:10.037Z,3.0
2017-08-31T12:31:11.656Z,3.1
2017-08-31T12:32:13.277Z,2.6
2017-08-31T12:33:14.900Z,3.1
2017-08-31T12:34:16.523Z,2.8
2017-08-31T12:35:18.143Z,5.4
2017-08-31T12:36:19.765Z,3.4
2017-08-31T12:37:21.386Z,2.4
2017-08-31T12:38:23.009Z,6.1
2017-08-31T12:39:24.636Z,3.7
2017-08-31T12:40:26.252Z,3.4
2017-08-31T12:41:27.879Z,2.8
2017-08-31T12:42:29.505Z,4.9
2017-08-31T12:43:31.127Z,2.0
2017-08-31T12:44:32.751Z,5.7
2017-08-31T12:45:34.368Z,2.3
2017-08-31T12:46:35.992Z,2.6
2017-08-31T12:47:37.616Z,2.1
2017-08-31T12:48:39.242Z,5.6
2017-08-31T12:49:40.865Z,1.8
2017-08-31T12:50:42.483Z,7.1
2017-08-31T12:51:44.104Z,3.5
2017-08-31T12:52:45.722Z,8.8
2017-08-31T12:53:47.345Z,4.2
2017-08-31T12:54:48.970Z,4.0
2017-08-31T12:55:50.585Z,3.1
2017-08-31T12:56:52.209Z,5.3
2017-08-31T12:57:53.829Z,3.8
2017-08-31T12:58:55.450Z,3.4
2017-08-31T12:59:57.072Z,1.9
2017-08-31T13:00:58.696Z,5.2
2017-08-31T13:02:00.321Z,2.7
2017-08-31T13:03:01.932Z,2.9
2017-08-31T13:04:03.551Z,1.7
2017-08-31T13:05:05.176Z,4.0
2017-08-31T13:06:06.799Z,3.5
2017-08-31T13:07:08.414Z,2.8
2017-08-31T13:08:10.030Z,2.4
2017-08-31T13:09:11.650Z,6.2
2017-08-31T13:10:13.275Z,4.0
2017-08-31T13:11:14.904Z,5.2
2017-08-31T13:12:16.517Z,4.8
2017-08-31T13:13:18.141Z,7.7
2017-08-31T13:14:19.756Z,3.2
2017-08-31T13:15:21.373Z,2.4
2017-08-31T13:16:23.001Z,3.2
2017-08-31T13:17:24.618Z,3.8
2017-08-31T13:18:26.237Z,4.9
2017-08-31T13:19:27.854Z,4.9
2017-08-31T13:20:29.482Z,2.8
2017-08-31T13:21:31.094Z,2.5
2017-08-31T13:22:32.718Z,7.5
2017-08-31T13:23:34.340Z,2.1
2017-08-31T13:24:35.958Z,2.5
2017-08-31T13:25:37.578Z,4.7
2017-08-31T13:26:39.202Z,2.8
2017-08-31T13:27:40.826Z,3.1
2017-08-31T13:28:42.440Z,3.2
2017-08-31T13:29:44.057Z,3.6
2017-08-31T13:30:45.684Z,2.7
2017-08-31T13:31:47.305Z,2.5
2017-08-31T13:32:48.921Z,2.6
2017-08-31T13:33:50.543Z,2.1
2017-08-31T13:34:52.169Z,2.1
2017-08-31T13:35:53.791Z,2.7
2017-08-31T13:36:55.406Z,2.3
2017-08-31T13:37:57.025Z,2.8
2017-08-31T13:38:58.647Z,4.1
2017-08-31T13:40:00.278Z,5.7
2017-08-31T13:41:01.899Z,2.1
2017-08-31T13:42:03.519Z,2.4
2017-08-31T13:43:05.140Z,2.6
2017-08-31T13:44:06.762Z,2.5
2017-08-31T13:45:08.377Z,2.1
2017-08-31T13:46:10.000Z,1.7
2017-08-31T13:47:11.617Z,2.0
2017-08-31T13:48:13.245Z,3.1
2017-08-31T13:49:14.867Z,1.8
2017-08-31T13:50:16.484Z,3.2
2017-08-31T13:51:18.110Z,3.0
2017-08-31T13:52:19.730Z,2.5
2017-08-31T13:53:21.347Z,2.2
2017-08-31T13:54:22.978Z,3.4
2017-08-31T13:55:24.603Z,2.1